Time;durP1;ratioP1;P1;durP2;ratioP2;P2;SDS_P1;SDS_P2;PMS_P1;PMS_P2;Temp;Humidity;BMP_temperature;BMP_pressure;BME280_temperature;BME280_humidity;BME280_pressure;Samples;Min_cycle;Max_cycle;Signal;HPM_P1;HPM_P2
2021/12/20 00:00:50;;;;;;;10.58;3.27;;;;;;;1.52;86.23;99620.27;1649359;87;25404;-71
2021/12/20 00:03:17;;;;;;;6.47;3.02;;;;;;;1.53;86.23;99615.19;1649184;87;27925;-71
2021/12/20 00:05:43;;;;;;;7.12;2.92;;;;;;;1.54;85.90;99613.59;1648924;87;25581;-71
2021/12/20 00:08:10;;;;;;;8.30;3.42;;;;;;;1.55;85.86;99609.05;1649354;87;25745;-72
2021/12/20 00:10:37;;;;;;;7.65;3.47;;;;;;;1.55;85.86;99615.20;1649130;87;25623;-71
2021/12/20 00:13:04;;;;;;;8.30;2.98;;;;;;;1.58;85.93;99607.20;1648971;87;25805;-71
2021/12/20 00:15:30;;;;;;;6.83;3.70;;;;;;;1.57;85.64;99609.07;1657208;86;27912;-72
2021/12/20 00:17:57;;;;;;;7.65;3.00;;;;;;;1.59;85.42;99606.93;1658909;86;25456;-70
2021/12/20 00:20:23;;;;;;;8.30;2.92;;;;;;;1.59;85.59;99609.59;1658797;86;25765;-69
2021/12/20 00:22:51;;;;;;;11.20;5.15;;;;;;;1.61;85.21;99605.34;1658907;86;25724;-70
2021/12/20 00:25:18;;;;;;;11.28;4.85;;;;;;;1.60;85.03;99604.55;1659205;86;25635;-71
2021/12/20 00:27:45;;;;;;;7.92;3.37;;;;;;;1.61;84.99;99604.00;1659242;86;27398;-71
2021/12/20 00:30:12;;;;;;;6.55;2.80;;;;;;;1.60;84.84;99601.05;1659156;86;25649;-71
2021/12/20 00:32:39;;;;;;;8.08;2.72;;;;;;;1.59;84.64;99598.14;1640859;87;25694;-71
2021/12/20 00:35:08;;;;;;;7.90;2.70;;;;;;;1.58;84.21;99597.33;1655029;86;26239;-71
2021/12/20 00:40:21;;;;;;;3.52;1.87;;;;;;;1.55;84.12;99607.20;1659295;86;27480;-71
2021/12/20 00:43:02;;;;;;;5.20;2.20;;;;;;;1.56;84.13;99607.45;1659158;86;25628;-71
2021/12/20 00:45:33;;;;;;;5.55;2.30;;;;;;;1.56;84.26;99612.79;1659261;86;25488;-71
2021/12/20 00:48:01;;;;;;;6.05;2.33;;;;;;;1.57;84.11;99614.94;1659256;86;25497;-70
2021/12/20 00:50:29;;;;;;;7.65;3.35;;;;;;;1.54;84.17;99600.27;1659197;86;25520;-70
2021/12/20 00:52:56;;;;;;;3.72;1.85;;;;;;;1.55;83.86;99613.88;1659259;86;27511;-70
2021/12/20 00:55:27;;;;;;;6.17;2.02;;;;;;;1.57;83.95;99616.27;1659152;86;25666;-71
2021/12/20 00:57:58;;;;;;;5.85;2.83;;;;;;;1.57;83.75;99613.61;1659251;86;25447;-70
2021/12/20 01:00:29;;;;;;;4.62;2.02;;;;;;;1.57;83.35;99614.94;1659228;86;25628;-70
2021/12/20 01:02:58;;;;;;;7.83;3.12;;;;;;;1.55;83.51;99613.05;1659065;86;25428;-70
2021/12/20 01:05:27;;;;;;;4.87;2.60;;;;;;;1.56;83.41;99608.00;1659432;86;27335;-70
2021/12/20 01:07:57;;;;;;;7.75;2.00;;;;;;;1.55;83.46;99617.88;1652092;86;25810;-71
2021/12/20 01:10:24;;;;;;;6.70;2.35;;;;;;;1.56;82.96;99609.33;1658952;86;25576;-72
2021/12/20 01:12:54;;;;;;;4.17;1.95;;;;;;;1.56;83.15;99616.00;1659255;86;25713;-70
2021/12/20 01:15:23;;;;;;;;;;;;;;;1.55;83.07;99621.05;1657680;86;25564;-71
2021/12/20 01:17:52;;;;;;;5.37;2.17;;;;;;;1.54;83.08;99621.59;1651966;86;26963;-71
2021/12/20 01:20:20;;;;;;;5.00;2.70;;;;;;;1.52;82.96;99623.73;1625897;86;26691;-71
2021/12/20 01:22:50;;;;;;;5.83;2.42;;;;;;;1.52;82.69;99609.61;1651716;86;25697;-72
2021/12/20 01:25:19;;;;;;;3.77;2.12;;;;;;;1.51;82.75;99614.12;1638139;86;25788;-72
2021/12/20 01:27:46;;;;;;;9.45;2.10;;;;;;;1.51;82.83;99618.66;1634011;87;25347;-71
2021/12/20 01:30:16;;;;;;;3.67;1.87;;;;;;;1.48;82.73;99619.97;1633932;87;27321;-71
2021/12/20 01:32:43;;;;;;;5.65;2.62;;;;;;;1.47;82.45;99619.19;1633917;87;25629;-72
2021/12/20 01:35:11;;;;;;;7.95;2.00;;;;;;;1.45;82.81;99623.98;1633907;87;25420;-71
2021/12/20 01:37:39;;;;;;;4.08;2.02;;;;;;;1.46;82.62;99615.45;1634107;87;25647;-71
2021/12/20 01:40:11;;;;;;;4.42;1.90;;;;;;;1.45;82.67;99625.86;1633933;86;25527;-70
2021/12/20 01:42:38;;;;;;;4.83;2.10;;;;;;;1.44;82.68;99620.25;1633981;87;27503;-70
2021/12/20 01:45:14;;;;;;;4.87;1.98;;;;;;;1.42;82.80;99616.51;1644665;87;25631;-71
2021/12/20 01:47:45;;;;;;;6.92;3.40;;;;;;;1.41;82.65;99616.77;1633997;87;25639;-70
2021/12/20 01:50:22;;;;;;;5.92;2.72;;;;;;;1.39;82.65;99607.70;1633771;87;26384;-70
2021/12/20 01:52:44;;;;;;;6.17;3.30;;;;;;;1.38;82.44;99609.30;1633333;87;25630;-70
2021/12/20 01:55:16;;;;;;;10.48;5.45;;;;;;;1.37;82.39;99611.17;1633916;87;27476;-70
2021/12/20 01:57:43;;;;;;;5.55;2.08;;;;;;;1.36;82.48;99611.44;1633740;87;25751;-70
2021/12/20 02:00:16;;;;;;;4.37;1.72;;;;;;;1.35;82.32;99610.64;1633979;87;25436;-70
2021/12/20 02:02:43;;;;;;;5.33;2.22;;;;;;;1.35;82.62;99614.64;1633635;87;25638;-70
2021/12/20 02:05:19;;;;;;;4.05;1.95;;;;;;;1.37;82.60;99615.71;1633923;87;25415;-70
2021/12/20 02:08:00;;;;;;;;;;;;;;;1.36;82.73;99608.23;1635757;87;28320;-70
2021/12/20 02:10:20;;;;;;;3.35;1.72;;;;;;;1.37;82.61;99618.38;1633098;87;25483;-70
2021/12/20 02:12:46;;;;;;;5.35;1.90;;;;;;;1.36;82.57;99618.89;1622763;87;25509;-70
2021/12/20 02:15:13;;;;;;;6.92;1.87;;;;;;;1.38;82.69;99621.29;1650138;85;25753;-70
2021/12/20 02:17:41;;;;;;;5.80;2.20;;;;;;;1.38;82.71;99623.45;1683774;85;25465;-70
2021/12/20 02:20:10;;;;;;;8.28;2.08;;;;;;;1.37;82.76;99623.16;1651060;86;27338;-70
2021/12/20 02:22:38;;;;;;;3.87;1.90;;;;;;;1.38;82.65;99622.63;1684003;84;25647;-71
2021/12/20 02:25:07;;;;;;;4.17;1.70;;;;;;;1.36;82.71;99619.43;1650313;87;25654;-71
2021/12/20 02:27:33;;;;;;;3.72;2.00;;;;;;;1.38;82.82;99620.78;1649251;87;25711;-71
2021/12/20 02:30:08;;;;;;;8.70;2.12;;;;;;;1.39;82.76;99614.91;1650461;87;25432;-71
2021/12/20 02:37:58;;;;;;;3.85;2.00;;;;;;;1.37;82.54;99603.72;1650561;86;25669;-70
2021/12/20 02:40:25;;;;;;;4.22;2.08;;;;;;;1.35;82.37;99596.53;1650386;87;26156;-71
2021/12/20 02:42:52;;;;;;;3.67;1.70;;;;;;;1.33;82.52;99602.63;1630290;87;25625;-71
2021/12/20 02:45:19;;;;;;;4.35;1.67;;;;;;;1.32;82.64;99595.18;1684023;84;27423;-71
2021/12/20 02:47:48;;;;;;;3.37;1.60;;;;;;;1.32;82.76;99603.72;1650421;86;25417;-71
2021/12/20 02:50:15;;;;;;;4.10;1.82;;;;;;;1.29;82.84;99596.52;1684224;84;25592;-70
2021/12/20 02:52:42;;;;;;;5.60;2.35;;;;;;;1.28;82.81;99590.13;1650494;87;26164;-70
2021/12/20 02:55:11;;;;;;;3.80;2.02;;;;;;;1.26;82.82;99590.89;1683903;84;25559;-70
2021/12/20 02:57:39;;;;;;;4.55;1.55;;;;;;;1.25;82.97;99590.10;1631555;87;28116;-71
2021/12/20 03:00:09;;;;;;;6.85;2.35;;;;;;;1.23;82.90;99586.91;1649856;87;25769;-71
2021/12/20 03:02:36;;;;;;;4.97;1.85;;;;;;;1.22;82.96;99577.84;1683888;84;25589;-71
2021/12/20 03:05:05;;;;;;;5.50;2.00;;;;;;;1.21;83.10;99573.06;1649503;87;26295;-71
2021/12/20 03:07:41;;;;;;;3.98;2.30;;;;;;;1.22;83.17;99567.19;1684274;84;25491;-71
2021/12/20 03:10:03;;;;;;;6.77;2.33;;;;;;;1.22;83.21;99555.20;1682911;84;27614;-71
2021/12/20 03:12:32;;;;;;;4.65;1.70;;;;;;;1.19;83.23;99564.53;1684146;85;25406;-71
2021/12/20 03:15:07;;;;;;;4.22;2.20;;;;;;;1.17;83.37;99562.64;1683890;85;25474;-72
2021/12/20 03:17:29;;;;;;;4.87;1.98;;;;;;;1.16;83.46;99570.38;1675607;83;26132;-71
2021/12/20 03:19:56;;;;;;;7.90;2.80;;;;;;;1.11;83.38;99571.17;1634061;87;25459;-71
2021/12/20 03:22:23;;;;;;;3.72;1.70;;;;;;;1.13;83.61;99575.45;1634056;87;27336;-70
2021/12/20 03:24:49;;;;;;;5.95;2.27;;;;;;;1.11;83.79;99571.70;1633962;87;25620;-72
2021/12/20 03:27:16;;;;;;;2.92;1.70;;;;;;;1.11;83.82;99573.83;1633980;87;25481;-71
2021/12/20 03:29:43;;;;;;;3.83;1.87;;;;;;;1.10;83.89;99569.55;1634000;87;26183;-71
2021/12/20 03:32:09;;;;;;;2.72;1.95;;;;;;;1.09;83.93;99567.16;1634073;87;25622;-71
2021/12/20 03:34:36;;;;;;;4.05;2.10;;;;;;;1.08;83.95;99563.70;1634090;87;27077;-71
2021/12/20 03:37:03;;;;;;;4.80;1.92;;;;;;;1.09;84.09;99577.80;1634171;87;25671;-71
2021/12/20 03:39:30;;;;;;;5.58;2.30;;;;;;;1.06;84.18;99577.81;1634424;87;25565;-71
2021/12/20 03:41:56;;;;;;;3.83;2.15;;;;;;;1.06;84.29;99575.70;1634614;87;26133;-72
2021/12/20 03:44:23;;;;;;;8.68;3.25;;;;;;;1.05;84.53;99574.08;1622143;87;25621;-72
2021/12/20 03:46:50;;;;;;;3.83;1.87;;;;;;;1.05;84.63;99572.20;1634530;87;27867;-72
2021/12/20 03:49:16;;;;;;;3.62;1.80;;;;;;;1.03;84.80;99571.68;1621937;87;25642;-72
2021/12/20 03:51:43;;;;;;;7.70;2.10;;;;;;;1.02;85.06;99566.61;1634097;86;25572;-72
2021/12/20 03:54:10;;;;;;;4.22;2.12;;;;;;;0.98;85.22;99567.67;1634077;87;26355;-72
2021/12/20 03:56:37;;;;;;;4.87;2.20;;;;;;;0.96;85.29;99570.34;1621671;87;25239;-72
2021/12/20 03:59:04;;;;;;;2.85;2.12;;;;;;;0.92;85.45;99570.86;1634037;87;27327;-72
2021/12/20 04:01:31;;;;;;;2.72;1.90;;;;;;;0.92;85.58;99568.20;1633954;87;25797;-72
2021/12/20 04:04:00;;;;;;;2.90;1.75;;;;;;;0.92;85.82;99570.86;1621870;87;25426;-71
2021/12/20 04:06:26;;;;;;;3.62;1.95;;;;;;;0.91;86.03;99576.45;1633969;85;25653;-71
2021/12/20 04:08:52;;;;;;;7.05;2.67;;;;;;;0.87;86.30;99578.84;1634121;87;25421;-71
2021/12/20 04:11:19;;;;;;;3.87;2.45;;;;;;;0.86;86.45;99575.10;1634033;87;27355;-71
2021/12/20 04:13:46;;;;;;;2.77;1.90;;;;;;;0.81;86.78;99571.88;1634038;87;25608;-71
2021/12/20 04:16:12;;;;;;;3.60;1.62;;;;;;;0.77;87.03;99573.48;1634032;86;25427;-71
2021/12/20 04:18:39;;;;;;;4.08;2.08;;;;;;;0.74;87.08;99574.00;1634082;87;25649;-71
2021/12/20 04:21:06;;;;;;;3.72;1.87;;;;;;;0.72;87.43;99568.14;1634042;86;25594;-71
2021/12/20 04:23:32;;;;;;;3.55;2.33;;;;;;;0.69;87.54;99580.64;1634010;86;27504;-71
2021/12/20 04:25:59;;;;;;;4.90;2.62;;;;;;;0.68;87.77;99567.05;1621908;87;25617;-71
2021/12/20 04:28:26;;;;;;;5.42;2.70;;;;;;;0.69;88.03;99569.98;1633999;87;25488;-71
2021/12/20 04:30:52;;;;;;;3.22;2.65;;;;;;;0.67;88.13;99576.90;1633935;86;26425;-71
2021/12/20 04:33:20;;;;;;;7.12;2.67;;;;;;;0.70;88.34;99574.27;1621515;87;25667;-71
2021/12/20 04:35:48;;;;;;;7.62;2.80;;;;;;;0.70;88.49;99577.72;1633993;87;27917;-71
2021/12/20 04:38:15;;;;;;;3.35;2.45;;;;;;;0.71;88.64;99580.63;1633906;87;25731;-71
2021/12/20 04:40:42;;;;;;;6.65;3.30;;;;;;;0.72;88.82;99578.25;1634048;87;25579;-71
2021/12/20 04:43:08;;;;;;;4.58;3.47;;;;;;;0.73;89.03;99579.04;1634019;87;25641;-71
2021/12/20 04:45:36;;;;;;;4.97;3.72;;;;;;;0.74;89.09;99584.11;1634081;87;25435;-72
2021/12/20 04:48:05;;;;;;;6.75;3.92;;;;;;;0.76;89.22;99585.18;1634004;87;27271;-71
2021/12/20 04:50:32;;;;;;;6.70;3.17;;;;;;;0.77;89.29;99592.12;1633500;87;25773;-71
2021/12/20 04:52:59;;;;;;;3.83;3.17;;;;;;;0.79;89.65;99584.66;1633992;87;25567;-71
2021/12/20 04:55:28;;;;;;;4.12;3.20;;;;;;;0.80;89.61;99586.78;1633885;87;25646;-71
2021/12/20 04:57:56;;;;;;;5.60;3.58;;;;;;;0.81;89.73;99591.85;1634125;87;25607;-71
2021/12/20 05:00:30;;;;;;;5.47;3.33;;;;;;;0.82;89.65;99589.98;1633953;87;27337;-71
2021/12/20 05:02:57;;;;;;;5.85;3.65;;;;;;;0.84;89.74;99589.22;1633889;87;26343;-69
2021/12/20 05:05:24;;;;;;;5.00;3.17;;;;;;;0.85;89.79;99598.27;1633961;87;25420;-71
2021/12/20 05:07:53;;;;;;;5.35;3.77;;;;;;;0.87;89.89;99594.81;1633945;87;25647;-69
2021/12/20 05:10:32;;;;;;;11.05;4.90;;;;;;;0.89;89.99;99600.67;1634205;87;25661;-70
2021/12/20 05:13:02;;;;;;;5.08;2.98;;;;;;;0.91;89.93;99608.41;1633882;85;27397;-70
2021/12/20 05:15:29;;;;;;;5.15;2.87;;;;;;;0.95;90.04;99610.01;1634377;86;25872;-71
2021/12/20 05:17:57;;;;;;;4.35;2.70;;;;;;;0.96;89.97;99615.61;1628119;87;25460;-71
2021/12/20 05:20:24;;;;;;;4.15;2.42;;;;;;;0.97;90.03;99611.36;1648353;87;26183;-71
2021/12/20 05:22:52;;;;;;;4.83;3.02;;;;;;;0.99;90.05;99611.89;1648247;87;25593;-71
2021/12/20 05:25:18;;;;;;;4.65;2.67;;;;;;;1.01;90.12;99612.97;1629435;87;27343;-71
2021/12/20 05:27:45;;;;;;;3.20;2.67;;;;;;;1.02;90.15;99610.55;1648188;87;25678;-71
2021/12/20 05:30:14;;;;;;;3.85;2.62;;;;;;;1.03;90.18;99618.83;1648297;87;25467;-71
2021/12/20 05:32:43;;;;;;;3.75;2.87;;;;;;;1.03;90.11;99616.16;1648222;86;26379;-71
2021/12/20 05:35:13;;;;;;;3.92;2.83;;;;;;;1.03;90.19;99623.61;1648199;87;25698;-71
2021/12/20 05:37:40;;;;;;;;;;;;;;;1.03;90.07;99624.95;1650730;87;27924;-70
2021/12/20 05:40:10;;;;;;;3.52;3.00;;;;;;;1.04;90.11;99627.06;1659880;86;25426;-70
2021/12/20 05:42:38;;;;;;;4.60;2.83;;;;;;;1.05;90.17;99634.02;1659994;86;25465;-70
2021/12/20 05:45:07;;;;;;;5.15;3.27;;;;;;;1.06;90.23;99642.28;1659900;86;25649;-70
2021/12/20 05:47:34;;;;;;;5.80;3.40;;;;;;;1.08;90.24;99645.48;1660217;86;25593;-70
2021/12/20 05:50:02;;;;;;;9.45;4.47;;;;;;;1.08;90.20;99654.27;1659957;86;27905;-70
2021/12/20 05:52:29;;;;;;;3.17;2.87;;;;;;;1.09;90.19;99651.88;1642827;86;25466;-70
2021/12/20 05:54:56;;;;;;;4.62;2.95;;;;;;;1.10;90.13;99642.02;1660350;86;25560;-70
2021/12/20 05:57:24;;;;;;;3.20;2.85;;;;;;;1.12;90.14;99647.88;1659951;85;25637;-70
2021/12/20 05:59:51;;;;;;;4.92;2.90;;;;;;;1.11;90.12;99647.62;1660000;86;25662;-71
2021/12/20 06:02:18;;;;;;;5.42;3.55;;;;;;;1.11;90.00;99660.94;1659904;86;27335;-70
2021/12/20 06:04:50;;;;;;;3.95;2.98;;;;;;;1.10;90.00;99665.45;1659826;85;25652;-70
2021/12/20 06:07:13;;;;;;;8.10;3.85;;;;;;;1.09;90.05;99670.52;1647817;86;25576;-70
2021/12/20 06:09:40;;;;;;;5.78;3.27;;;;;;;1.11;90.11;99675.59;1628136;87;26387;-71
2021/12/20 06:12:09;;;;;;;6.80;3.20;;;;;;;1.11;90.12;99677.72;1648353;86;25434;-71
2021/12/20 06:14:35;;;;;;;5.37;3.75;;;;;;;1.10;90.15;99682.77;1648344;86;27883;-71
2021/12/20 06:17:02;;;;;;;6.40;3.30;;;;;;;1.13;90.27;99688.66;1641190;86;25673;-71
2021/12/20 06:19:29;;;;;;;5.35;3.27;;;;;;;1.13;90.28;99685.45;1620993;86;25571;-71
2021/12/20 06:21:56;;;;;;;6.95;3.72;;;;;;;1.14;90.20;99698.23;1647601;85;26146;-71
2021/12/20 06:24:23;;;;;;;5.22;3.70;;;;;;;1.15;90.29;99699.30;1641114;85;25692;-71
2021/12/20 06:26:51;;;;;;;4.80;3.70;;;;;;;1.15;90.35;99703.30;1664067;85;27394;-71
2021/12/20 06:29:19;;;;;;;5.05;3.50;;;;;;;1.13;90.35;99702.77;1663663;85;25734;-70
2021/12/20 06:31:45;;;;;;;5.95;4.30;;;;;;;1.16;90.46;99706.25;1662693;85;25565;-69
2021/12/20 06:34:13;;;;;;;8.73;4.67;;;;;;;1.16;90.37;99714.23;1636369;85;26359;-70
2021/12/20 06:36:40;;;;;;;6.45;4.30;;;;;;;1.17;90.42;99715.03;1645692;86;25629;-69
2021/12/20 06:39:06;;;;;;;8.23;4.22;;;;;;;1.17;90.38;99719.03;1643106;86;27408;-69
2021/12/20 06:41:33;;;;;;;7.35;3.70;;;;;;;1.18;90.34;99727.30;1651262;86;26430;-69
2021/12/20 06:44:02;;;;;;;6.10;4.05;;;;;;;1.17;90.25;99728.35;1604610;87;25731;-69
2021/12/20 06:46:30;;;;;;;6.50;4.07;;;;;;;1.17;90.31;99732.34;1604825;88;25619;-70
2021/12/20 06:48:57;;;;;;;6.80;4.42;;;;;;;1.16;90.30;99727.56;1604629;89;25584;-70
2021/12/20 06:51:23;;;;;;;5.80;4.22;;;;;;;1.15;90.21;99735.27;1637715;86;27386;-70
2021/12/20 06:53:50;;;;;;;7.15;4.95;;;;;;;1.15;90.17;99741.14;1647415;86;25583;-70
2021/12/20 06:56:16;;;;;;;7.33;4.60;;;;;;;1.15;90.20;99731.81;1647454;86;25482;-71
2021/12/20 06:58:43;;;;;;;8.20;5.03;;;;;;;1.14;90.14;99744.31;1647573;86;25719;-71
2021/12/20 07:01:10;;;;;;;8.63;5.75;;;;;;;1.14;90.24;99745.64;1647351;87;25315;-71
2021/12/20 07:03:36;;;;;;;9.70;5.90;;;;;;;1.12;90.33;99741.11;1644150;86;27354;-70
2021/12/20 07:06:03;;;;;;;10.03;5.33;;;;;;;1.15;90.23;99753.12;1647096;85;25448;-69
2021/12/20 07:08:29;;;;;;;6.70;5.08;;;;;;;1.15;90.31;99751.80;1605237;87;26127;-70
2021/12/20 07:10:56;;;;;;;8.40;5.58;;;;;;;1.16;90.40;99757.37;1612546;88;25781;-70
2021/12/20 07:13:23;;;;;;;8.28;4.83;;;;;;;1.18;90.41;99760.61;1613202;89;25513;-70
2021/12/20 07:15:50;;;;;;;5.83;4.22;;;;;;;1.18;90.33;99761.94;1610878;88;27502;-70
2021/12/20 07:18:16;;;;;;;5.08;3.60;;;;;;;1.19;90.35;99765.67;1654074;86;25408;-69
2021/12/20 07:20:43;;;;;;;5.25;3.65;;;;;;;1.17;90.17;99763.78;1654740;86;25459;-71
2021/12/20 07:23:09;;;;;;;4.80;4.00;;;;;;;1.17;90.16;99765.11;1654722;86;25638;-70
2021/12/20 07:25:36;;;;;;;6.35;3.83;;;;;;;1.19;90.25;99765.67;1654822;86;25585;-70
2021/12/20 07:28:03;;;;;;;5.22;3.92;;;;;;;1.21;90.24;99780.05;1602497;87;27399;-72
2021/12/20 07:30:31;;;;;;;6.28;3.92;;;;;;;1.21;90.24;99778.20;1603931;88;26370;-70
2021/12/20 07:33:00;;;;;;;5.45;3.65;;;;;;;1.24;90.25;99784.86;1603986;88;25608;-71
2021/12/20 07:35:27;;;;;;;5.35;3.45;;;;;;;1.24;90.12;99783.53;1629068;85;25610;-70
2021/12/20 07:37:58;;;;;;;4.87;3.35;;;;;;;1.25;90.19;99787.27;1601459;87;25498;-71
2021/12/20 07:40:24;;;;;;;4.15;3.20;;;;;;;1.28;90.16;99783.30;1624774;88;27874;-72
2021/12/20 07:42:51;;;;;;;4.28;3.22;;;;;;;1.28;90.01;99773.44;1624731;88;25745;-71
2021/12/20 07:45:18;;;;;;;4.35;3.05;;;;;;;1.28;89.91;99781.42;1626142;88;25729;-73
2021/12/20 07:47:51;;;;;;;6.45;4.12;;;;;;;1.30;89.83;99775.84;1624820;87;25658;-73
2021/12/20 07:50:19;;;;;;;12.88;6.08;;;;;;;1.30;89.73;99782.50;1657224;85;25639;-71
2021/12/20 07:52:46;;;;;;;5.47;3.50;;;;;;;1.34;89.84;99782.24;1633871;86;27474;-70
2021/12/20 07:55:13;;;;;;;5.65;3.15;;;;;;;1.38;89.70;99781.19;1654688;86;25669;-70
2021/12/20 07:57:40;;;;;;;6.70;2.92;;;;;;;1.39;89.62;99777.47;1654792;86;25563;-71
2021/12/20 08:00:10;;;;;;;6.40;3.80;;;;;;;1.43;89.54;99785.20;1654656;86;25624;-71
2021/12/20 08:02:37;;;;;;;4.62;3.33;;;;;;;1.45;89.51;99783.11;1654886;86;25647;-70
2021/12/20 08:05:05;;;;;;;6.12;3.35;;;;;;;1.48;89.44;99786.55;1654755;86;27337;-70
2021/12/20 08:07:32;;;;;;;6.20;3.30;;;;;;;1.53;89.36;99796.45;1633514;86;25748;-71
2021/12/20 08:09:58;;;;;;;4.45;2.98;;;;;;;1.55;89.33;99799.14;1654697;86;25469;-71
2021/12/20 08:12:25;;;;;;;10.08;4.08;;;;;;;1.57;89.25;99798.34;1654767;86;26506;-71
2021/12/20 08:14:51;;;;;;;6.25;3.52;;;;;;;1.63;89.31;99804.48;1654760;86;25604;-71
2021/12/20 08:17:18;;;;;;;4.15;2.67;;;;;;;1.68;89.27;99809.29;1650292;86;27343;-71
2021/12/20 08:19:44;;;;;;;3.83;2.98;;;;;;;1.72;89.19;99817.59;1643007;87;25710;-72
2021/12/20 08:22:11;;;;;;;7.45;3.08;;;;;;;1.76;88.86;99815.20;1643060;87;25423;-71
2021/12/20 08:24:38;;;;;;;3.42;2.90;;;;;;;1.77;88.83;99818.13;1643071;87;25602;-71
2021/12/20 08:27:04;;;;;;;4.37;2.90;;;;;;;1.80;88.83;99821.06;1643170;87;25651;-70
2021/12/20 08:29:31;;;;;;;4.03;2.50;;;;;;;1.85;88.82;99818.95;1643129;87;27339;-70
2021/12/20 08:32:01;;;;;;;5.83;2.58;;;;;;;1.88;88.26;99822.44;1642970;87;25951;-72
2021/12/20 08:34:30;;;;;;;16.30;7.55;;;;;;;1.89;88.16;99824.56;1643137;86;26141;-72
2021/12/20 08:36:59;;;;;;;10.80;6.25;;;;;;;1.90;88.14;99828.30;1643138;87;26605;-71
2021/12/20 08:39:25;;;;;;;6.10;3.33;;;;;;;1.92;88.05;99831.50;1643145;87;25728;-71
2021/12/20 08:41:52;;;;;;;4.05;2.92;;;;;;;1.92;87.94;99829.38;1643115;87;27526;-71
2021/12/20 08:44:19;;;;;;;2.95;2.60;;;;;;;1.96;87.87;99838.45;1621560;87;25666;-71
2021/12/20 08:46:46;;;;;;;4.78;2.65;;;;;;;1.95;87.59;99840.86;1643112;87;25615;-71
2021/12/20 08:49:12;;;;;;;6.22;3.77;;;;;;;1.93;87.75;99835.78;1643068;87;25686;-70
2021/12/20 08:51:39;;;;;;;6.60;3.67;;;;;;;1.94;87.55;99831.24;1643073;87;25491;-71
2021/12/20 08:54:06;;;;;;;11.18;7.10;;;;;;;1.94;87.60;99835.25;1643010;87;27360;-71
2021/12/20 08:56:33;;;;;;;4.60;2.65;;;;;;;1.95;87.86;99845.66;1643002;87;25572;-72
2021/12/20 08:58:59;;;;;;;4.08;3.10;;;;;;;1.97;87.94;99846.73;1643119;87;25781;-71
2021/12/20 09:01:26;;;;;;;5.30;3.40;;;;;;;1.97;87.99;99850.73;1643081;87;25744;-71
2021/12/20 09:03:53;;;;;;;5.47;3.37;;;;;;;1.94;88.04;99849.41;1643106;87;25411;-71
2021/12/20 09:06:22;;;;;;;7.60;3.60;;;;;;;1.93;88.12;99849.66;1643129;87;27220;-72
2021/12/20 09:08:49;;;;;;;4.12;3.45;;;;;;;1.88;87.88;99856.31;1643098;87;26803;-72
2021/12/20 09:11:16;;;;;;;3.90;3.10;;;;;;;1.80;87.93;99861.06;1622686;87;25435;-72
2021/12/20 09:13:43;;;;;;;9.68;2.80;;;;;;;1.77;87.85;99864.79;1643070;87;26161;-71
2021/12/20 09:16:09;;;;;;;6.10;3.02;;;;;;;1.69;87.99;99867.44;1643018;87;25760;-71
2021/12/20 09:18:36;;;;;;;4.00;3.30;;;;;;;1.67;88.18;99873.57;1644537;86;27415;-73
2021/12/20 09:21:03;;;;;;;6.17;3.40;;;;;;;1.60;88.15;99877.80;1622368;86;25656;-71
2021/12/20 09:23:31;;;;;;;6.00;3.65;;;;;;;1.58;88.22;99881.23;1674304;84;25602;-72
2021/12/20 09:25:58;;;;;;;5.30;3.52;;;;;;;1.56;88.40;99879.91;1676094;84;25790;-71
2021/12/20 09:28:25;;;;;;;6.33;3.75;;;;;;;1.51;88.36;99885.20;1633974;87;25418;-72
2021/12/20 09:30:51;;;;;;;3.60;3.05;;;;;;;1.44;88.48;99887.56;1633907;87;27346;-70
2021/12/20 09:33:18;;;;;;;3.98;2.65;;;;;;;1.44;88.60;99886.23;1633994;87;25644;-72
2021/12/20 09:35:44;;;;;;;5.22;3.02;;;;;;;1.44;88.74;99890.77;1634368;87;25551;-71
2021/12/20 09:38:17;;;;;;;4.53;2.80;;;;;;;1.42;88.68;99889.69;1634248;87;25631;-71
2021/12/20 09:41:01;;;;;;;3.85;3.05;;;;;;;1.36;88.75;99888.05;1603914;88;25580;-71
2021/12/20 09:43:14;;;;;;;33.95;14.03;;;;;;;1.33;88.67;99891.25;1635932;86;27425;-70
2021/12/20 09:45:44;;;;;;;9.70;4.70;;;;;;;1.30;88.80;99891.75;1636157;87;33430;-71
2021/12/20 09:48:12;;;;;;;9.98;3.70;;;;;;;1.27;88.83;99884.27;1611855;87;25812;-71
2021/12/20 09:50:40;;;;;;;5.97;3.55;;;;;;;1.26;88.95;99894.64;1610009;89;26174;-71
2021/12/20 09:53:07;;;;;;;5.60;3.55;;;;;;;1.24;89.20;99894.10;1609842;89;26384;-72
2021/12/20 09:55:35;;;;;;;4.92;3.77;;;;;;;1.24;89.15;99901.59;1609899;89;27054;-72
2021/12/20 09:58:05;;;;;;;5.00;2.70;;;;;;;1.21;89.10;99912.75;1591111;89;25810;-72
2021/12/20 10:00:33;;;;;;;5.40;3.17;;;;;;;1.20;89.37;99922.33;1606669;89;25857;-72
2021/12/20 10:02:59;;;;;;;4.22;2.70;;;;;;;1.26;89.55;99905.30;1600754;89;26346;-72
2021/12/20 10:05:26;;;;;;;5.00;3.17;;;;;;;1.32;89.64;99913.61;1600936;89;25723;-72
2021/12/20 10:07:56;;;;;;;5.87;3.47;;;;;;;1.44;89.79;99914.76;1600885;89;27480;-72
2021/12/20 10:10:43;;;;;;;8.25;3.75;;;;;;;1.52;89.59;99923.61;1600696;88;25845;-73
2021/12/20 10:13:32;;;;;;;4.72;2.52;;;;;;;1.60;89.18;99923.63;1600422;89;25576;-71
2021/12/20 10:16:02;;;;;;;3.72;2.50;;;;;;;1.71;89.16;99924.52;1600919;89;34885;-71
2021/12/20 10:18:33;;;;;;;3.22;1.80;;;;;;;1.74;87.49;99928.80;1602720;87;25868;-72
2021/12/20 10:21:03;;;;;;;2.22;1.75;;;;;;;1.79;85.11;99935.48;1605812;89;29144;-70
2021/12/20 10:23:33;;;;;;;4.03;1.70;;;;;;;1.79;85.36;99936.03;1606386;89;25783;-72
2021/12/20 10:26:08;;;;;;;5.60;1.87;;;;;;;1.76;85.18;99932.54;1606188;89;25571;-72
2021/12/20 10:28:36;;;;;;;6.45;3.37;;;;;;;1.74;85.04;99943.97;1606007;89;25589;-72
2021/12/20 10:31:11;;;;;;;;;;;;;;;1.70;82.94;99933.02;1608093;89;25608;-71
2021/12/20 10:33:39;;;;;;;4.22;1.60;;;;;;;1.72;83.55;99936.77;1605882;89;27965;-72
2021/12/20 10:36:13;;;;;;;3.02;1.62;;;;;;;1.77;83.59;99940.28;1605174;88;25580;-72
2021/12/20 10:38:48;;;;;;;2.37;1.60;;;;;;;2.46;85.00;99933.59;1656028;86;25692;-73
2021/12/20 10:41:20;;;;;;;2.62;1.22;;;;;;;2.92;83.59;99945.69;1616467;88;25668;-73
2021/12/20 10:43:53;;;;;;;2.05;1.20;;;;;;;3.35;82.61;99947.02;1625936;87;25489;-73
2021/12/20 10:46:27;;;;;;;2.22;1.30;;;;;;;3.86;81.73;99948.77;1627938;87;27361;-70
2021/12/20 10:49:05;;;;;;;1.30;1.20;;;;;;;3.80;79.14;99933.82;1589762;88;25785;-73
2021/12/20 10:51:40;;;;;;;1.42;0.98;;;;;;;3.64;78.24;99942.95;1616509;87;25667;-72
2021/12/20 10:54:11;;;;;;;3.02;1.02;;;;;;;3.34;74.17;99929.38;1629606;86;26159;-72
2021/12/20 10:56:42;;;;;;;1.10;0.90;;;;;;;3.01;73.67;99947.28;1628683;88;25449;-73
2021/12/20 10:59:11;;;;;;;2.45;1.02;;;;;;;2.93;74.48;99955.31;1644841;86;27455;-72
2021/12/20 11:04:36;;;;;;;2.62;1.00;;;;;;;3.10;73.99;99948.34;1646917;87;25472;-72
2021/12/20 11:09:43;;;;;;;4.80;2.55;;;;;;;2.73;73.48;99958.21;1596489;89;25808;-72
2021/12/20 11:12:15;;;;;;;2.12;0.80;;;;;;;2.65;73.13;99960.60;1627531;87;27982;-72
2021/12/20 11:14:48;;;;;;;2.35;0.90;;;;;;;2.63;73.87;99955.52;1622647;87;25865;-74
2021/12/20 11:17:21;;;;;;;1.70;0.90;;;;;;;2.61;72.98;99966.47;1605225;87;25506;-73
2021/12/20 11:19:52;;;;;;;2.77;1.45;;;;;;;2.64;72.70;99968.34;1627623;87;25682;-73
2021/12/20 11:22:31;;;;;;;1.72;1.30;;;;;;;2.84;72.83;99970.25;1626986;87;25771;-73
2021/12/20 11:25:03;;;;;;;2.70;1.30;;;;;;;2.81;72.04;99968.92;1625972;88;27343;-72
2021/12/20 11:27:43;;;;;;;1.42;0.93;;;;;;;2.73;72.07;99959.55;1625572;87;25675;-73
2021/12/20 11:30:14;;;;;;;1.62;0.90;;;;;;;2.65;71.78;99968.08;1601209;87;25723;-74
2021/12/20 11:32:42;;;;;;;1.22;1.00;;;;;;;2.58;71.13;99975.54;1624596;87;25681;-73
2021/12/20 11:35:09;;;;;;;2.33;1.22;;;;;;;2.48;70.25;99973.64;1623492;87;25627;-72
2021/12/20 11:37:36;;;;;;;2.05;1.20;;;;;;;2.37;70.57;99980.03;1623561;88;28015;-73
2021/12/20 11:40:07;;;;;;;1.35;1.20;;;;;;;2.29;69.90;99983.20;1623395;88;25490;-73
2021/12/20 11:42:33;;;;;;;2.62;1.30;;;;;;;2.16;69.76;99981.80;1624918;87;25670;-73
2021/12/20 11:45:04;;;;;;;1.00;0.78;;;;;;;2.08;70.60;99992.45;1625773;87;26211;-72
2021/12/20 11:47:51;;;;;;;3.10;1.52;;;;;;;2.09;71.07;99998.04;1626854;87;25632;-74
2021/12/20 11:50:23;;;;;;;2.33;1.45;;;;;;;2.16;71.74;99999.96;1628100;87;27446;-73
2021/12/20 11:52:53;;;;;;;1.52;1.17;;;;;;;2.30;71.58;100006.14;1625829;87;25579;-74
2021/12/20 11:55:30;;;;;;;1.47;1.10;;;;;;;2.33;70.95;100002.95;1600453;87;25536;-73
2021/12/20 11:58:00;;;;;;;1.85;1.12;;;;;;;2.24;70.98;100011.99;1625512;87;26252;-74
2021/12/20 12:00:39;;;;;;;3.52;1.50;;;;;;;2.20;70.75;100005.58;1624106;87;25795;-73